Kimberlin Heights, Tennessee
Current Conditions -  °F | °C
As of 3:53 AM on Sunday 23 Nov 2014 (Local Time) from KTYS Reporting Station
Broken Clouds Broken Clouds  
Wind Chill: 37°   Ceiling: 6000
Heat Index: 41°   Visibility: 10mi
Dew Point: 32°   Wind: 6mph
Humidity: 70%   Direction: NA
Pressure: 30.11"   Gusts: NA
Location:  35.9105°N, 83.8544°W
Report Text: KTYS 230853Z VRB05KT 10SM BKN060 BKN100 BKN250 05/00 A3011 RMK AO2 SLP196 T00500000 58014
Loading
Personal Weather Stations






























Interactive Weather Map New forecast layout! Learn more

10-Day Weather Forecast

Advertisements
Track Severe Weather on mobile